sensor_id;sensor_type;location;lat;lon;timestamp;temperature;humidity
3690;DHT22;1861;50.240;8.596;2023-09-30T00:01:55;18.40;99.90
3690;DHT22;1861;50.240;8.596;2023-09-30T00:04:24;18.30;99.90
3690;DHT22;1861;50.240;8.596;2023-09-30T00:06:52;18.40;99.90
3690;DHT22;1861;50.240;8.596;2023-09-30T00:09:20;18.40;99.90
3690;DHT22;1861;50.240;8.596;2023-09-30T00:11:50;18.40;99.90
3690;DHT22;1861;50.240;8.596;2023-09-30T00:14:18;18.40;99.90
3690;DHT22;1861;50.240;8.596;2023-09-30T00:16:46;18.30;99.90
3690;DHT22;1861;50.240;8.596;2023-09-30T00:19:14;18.30;99.90
3690;DHT22;1861;50.240;8.596;2023-09-30T00:21:43;18.30;99.90
3690;DHT22;1861;50.240;8.596;2023-09-30T00:24:11;18.30;99.90
3690;DHT22;1861;50.240;8.596;2023-09-30T00:26:39;18.30;99.90
3690;DHT22;1861;50.240;8.596;2023-09-30T00:29:09;18.40;99.90
3690;DHT22;1861;50.240;8.596;2023-09-30T00:31:38;18.40;99.90
3690;DHT22;1861;50.240;8.596;2023-09-30T00:34:07;18.40;99.90
3690;DHT22;1861;50.240;8.596;2023-09-30T00:36:36;18.40;99.90
3690;DHT22;1861;50.240;8.596;2023-09-30T00:39:07;18.30;99.90
3690;DHT22;1861;50.240;8.596;2023-09-30T00:41:39;18.40;99.90
3690;DHT22;1861;50.240;8.596;2023-09-30T00:44:08;18.30;99.90
3690;DHT22;1861;50.240;8.596;2023-09-30T00:46:38;18.40;99.90
3690;DHT22;1861;50.240;8.596;2023-09-30T00:49:09;18.40;99.90
3690;DHT22;1861;50.240;8.596;2023-09-30T00:51:38;18.40;99.90
3690;DHT22;1861;50.240;8.596;2023-09-30T00:54:06;18.40;99.90
3690;DHT22;1861;50.240;8.596;2023-09-30T00:56:43;18.30;99.90
3690;DHT22;1861;50.240;8.596;2023-09-30T00:59:13;18.20;99.90
3690;DHT22;1861;50.240;8.596;2023-09-30T01:01:43;18.20;99.90
3690;DHT22;1861;50.240;8.596;2023-09-30T01:04:12;18.30;99.90
3690;DHT22;1861;50.240;8.596;2023-09-30T01:06:41;18.20;99.90
3690;DHT22;1861;50.240;8.596;2023-09-30T01:09:09;18.20;99.90
3690;DHT22;1861;50.240;8.596;2023-09-30T01:11:39;18.20;99.90
3690;DHT22;1861;50.240;8.596;2023-09-30T01:14:28;18.20;99.90
3690;DHT22;1861;50.240;8.596;2023-09-30T01:16:57;18.20;99.90
3690;DHT22;1861;50.240;8.596;2023-09-30T01:19:25;18.20;99.90
3690;DHT22;1861;50.240;8.596;2023-09-30T01:21:55;18.20;99.90
3690;DHT22;1861;50.240;8.596;2023-09-30T01:24:25;18.20;99.90
3690;DHT22;1861;50.240;8.596;2023-09-30T01:26:54;18.20;99.90
3690;DHT22;1861;50.240;8.596;2023-09-30T01:29:23;18.10;99.90
3690;DHT22;1861;50.240;8.596;2023-09-30T01:31:52;18.10;99.90
3690;DHT22;1861;50.240;8.596;2023-09-30T01:34:22;18.10;99.90
3690;DHT22;1861;50.240;8.596;2023-09-30T01:36:50;18.10;99.90
3690;DHT22;1861;50.240;8.596;2023-09-30T01:39:20;18.10;99.90
3690;DHT22;1861;50.240;8.596;2023-09-30T01:41:48;18.10;99.90
3690;DHT22;1861;50.240;8.596;2023-09-30T01:44:16;18.10;99.90
3690;DHT22;1861;50.240;8.596;2023-09-30T01:46:44;18.10;99.90
3690;DHT22;1861;50.240;8.596;2023-09-30T01:49:12;18.10;99.90
3690;DHT22;1861;50.240;8.596;2023-09-30T01:51:40;18.20;99.90
3690;DHT22;1861;50.240;8.596;2023-09-30T01:54:09;18.20;99.90
3690;DHT22;1861;50.240;8.596;2023-09-30T01:56:39;18.20;99.90
3690;DHT22;1861;50.240;8.596;2023-09-30T01:59:07;18.10;99.90
3690;DHT22;1861;50.240;8.596;2023-09-30T02:01:36;18.10;99.90
3690;DHT22;1861;50.240;8.596;2023-09-30T02:04:04;18.10;99.90
3690;DHT22;1861;50.240;8.596;2023-09-30T02:06:34;18.00;99.90
3690;DHT22;1861;50.240;8.596;2023-09-30T02:09:03;18.00;99.90
3690;DHT22;1861;50.240;8.596;2023-09-30T02:11:34;18.00;99.90
3690;DHT22;1861;50.240;8.596;2023-09-30T02:14:05;18.00;99.90
3690;DHT22;1861;50.240;8.596;2023-09-30T02:16:33;17.90;99.90
3690;DHT22;1861;50.240;8.596;2023-09-30T02:19:02;18.00;99.90
3690;DHT22;1861;50.240;8.596;2023-09-30T02:21:30;17.90;99.90
3690;DHT22;1861;50.240;8.596;2023-09-30T02:23:59;17.90;99.90
3690;DHT22;1861;50.240;8.596;2023-09-30T02:26:27;17.90;99.90
3690;DHT22;1861;50.240;8.596;2023-09-30T02:28:56;17.90;99.90
3690;DHT22;1861;50.240;8.596;2023-09-30T02:31:26;17.90;99.90
3690;DHT22;1861;50.240;8.596;2023-09-30T02:33:54;17.90;99.90
3690;DHT22;1861;50.240;8.596;2023-09-30T02:36:23;17.90;99.90
3690;DHT22;1861;50.240;8.596;2023-09-30T02:38:51;17.90;99.90
3690;DHT22;1861;50.240;8.596;2023-09-30T02:41:20;17.80;99.90
3690;DHT22;1861;50.240;8.596;2023-09-30T02:43:48;17.80;99.90
3690;DHT22;1861;50.240;8.596;2023-09-30T02:46:16;17.80;99.90
3690;DHT22;1861;50.240;8.596;2023-09-30T02:48:47;17.80;99.90
3690;DHT22;1861;50.240;8.596;2023-09-30T02:51:15;17.70;99.90
3690;DHT22;1861;50.240;8.596;2023-09-30T02:53:43;17.70;99.90
3690;DHT22;1861;50.240;8.596;2023-09-30T02:56:11;17.70;99.90
3690;DHT22;1861;50.240;8.596;2023-09-30T02:58:40;17.80;99.90
3690;DHT22;1861;50.240;8.596;2023-09-30T03:01:08;17.80;99.90
3690;DHT22;1861;50.240;8.596;2023-09-30T03:03:39;17.90;99.90
3690;DHT22;1861;50.240;8.596;2023-09-30T03:06:09;17.80;99.90
3690;DHT22;1861;50.240;8.596;2023-09-30T03:08:37;17.80;99.90
3690;DHT22;1861;50.240;8.596;2023-09-30T03:11:06;17.70;99.90
3690;DHT22;1861;50.240;8.596;2023-09-30T03:13:34;17.70;99.90
3690;DHT22;1861;50.240;8.596;2023-09-30T03:16:02;17.70;99.90
3690;DHT22;1861;50.240;8.596;2023-09-30T03:18:31;17.70;99.90
3690;DHT22;1861;50.240;8.596;2023-09-30T03:21:01;17.70;99.90
3690;DHT22;1861;50.240;8.596;2023-09-30T03:23:36;17.60;99.90
3690;DHT22;1861;50.240;8.596;2023-09-30T03:26:05;17.60;99.90
3690;DHT22;1861;50.240;8.596;2023-09-30T03:28:37;17.60;99.90
3690;DHT22;1861;50.240;8.596;2023-09-30T03:31:05;17.60;99.90
3690;DHT22;1861;50.240;8.596;2023-09-30T03:33:34;17.50;99.90
3690;DHT22;1861;50.240;8.596;2023-09-30T03:36:03;17.50;99.90
3690;DHT22;1861;50.240;8.596;2023-09-30T03:38:31;17.40;99.90
3690;DHT22;1861;50.240;8.596;2023-09-30T03:41:01;17.50;99.90
3690;DHT22;1861;50.240;8.596;2023-09-30T03:43:29;17.60;99.90
3690;DHT22;1861;50.240;8.596;2023-09-30T03:45:57;17.50;99.90
3690;DHT22;1861;50.240;8.596;2023-09-30T03:48:25;17.40;99.90
3690;DHT22;1861;50.240;8.596;2023-09-30T03:50:54;17.50;99.90
3690;DHT22;1861;50.240;8.596;2023-09-30T03:53:22;17.50;99.90
3690;DHT22;1861;50.240;8.596;2023-09-30T03:55:53;17.40;99.90
3690;DHT22;1861;50.240;8.596;2023-09-30T03:58:23;17.40;99.90
3690;DHT22;1861;50.240;8.596;2023-09-30T04:00:51;17.40;99.90
3690;DHT22;1861;50.240;8.596;2023-09-30T04:03:20;17.40;99.90
3690;DHT22;1861;50.240;8.596;2023-09-30T04:05:48;17.40;99.90
3690;DHT22;1861;50.240;8.596;2023-09-30T04:08:17;17.50;99.90
3690;DHT22;1861;50.240;8.596;2023-09-30T04:10:46;17.40;99.90
3690;DHT22;1861;50.240;8.596;2023-09-30T04:13:14;17.40;99.90
3690;DHT22;1861;50.240;8.596;2023-09-30T04:15:43;17.40;99.90
3690;DHT22;1861;50.240;8.596;2023-09-30T04:18:16;17.40;99.90
3690;DHT22;1861;50.240;8.596;2023-09-30T04:20:47;17.40;99.90
3690;DHT22;1861;50.240;8.596;2023-09-30T04:23:15;17.30;99.90
3690;DHT22;1861;50.240;8.596;2023-09-30T04:25:43;17.30;99.90
3690;DHT22;1861;50.240;8.596;2023-09-30T04:28:11;17.30;99.90
3690;DHT22;1861;50.240;8.596;2023-09-30T04:30:40;17.30;99.90
3690;DHT22;1861;50.240;8.596;2023-09-30T04:33:10;17.40;99.90
3690;DHT22;1861;50.240;8.596;2023-09-30T04:35:39;17.40;99.90
3690;DHT22;1861;50.240;8.596;2023-09-30T04:38:07;17.40;99.90
3690;DHT22;1861;50.240;8.596;2023-09-30T04:40:36;17.40;99.90
3690;DHT22;1861;50.240;8.596;2023-09-30T04:43:04;17.40;99.90
3690;DHT22;1861;50.240;8.596;2023-09-30T04:45:32;17.30;99.90
3690;DHT22;1861;50.240;8.596;2023-09-30T04:48:01;17.30;99.90
3690;DHT22;1861;50.240;8.596;2023-09-30T04:50:30;17.20;99.90
3690;DHT22;1861;50.240;8.596;2023-09-30T04:52:59;17.30;99.90
3690;DHT22;1861;50.240;8.596;2023-09-30T04:55:27;17.30;99.90
3690;DHT22;1861;50.240;8.596;2023-09-30T04:57:55;17.20;99.90
3690;DHT22;1861;50.240;8.596;2023-09-30T05:00:23;17.20;99.90
3690;DHT22;1861;50.240;8.596;2023-09-30T05:02:55;17.20;99.90
3690;DHT22;1861;50.240;8.596;2023-09-30T05:05:23;17.20;99.90
3690;DHT22;1861;50.240;8.596;2023-09-30T05:07:53;17.10;99.90
3690;DHT22;1861;50.240;8.596;2023-09-30T05:10:21;17.10;99.90
3690;DHT22;1861;50.240;8.596;2023-09-30T05:12:49;17.10;99.90
3690;DHT22;1861;50.240;8.596;2023-09-30T05:15:21;17.00;99.90
3690;DHT22;1861;50.240;8.596;2023-09-30T05:17:49;17.00;99.90
3690;DHT22;1861;50.240;8.596;2023-09-30T05:20:18;17.00;99.90
3690;DHT22;1861;50.240;8.596;2023-09-30T05:22:46;16.90;99.90
3690;DHT22;1861;50.240;8.596;2023-09-30T05:25:17;16.90;99.90
3690;DHT22;1861;50.240;8.596;2023-09-30T05:27:46;16.80;99.90
3690;DHT22;1861;50.240;8.596;2023-09-30T05:30:16;16.80;99.90
3690;DHT22;1861;50.240;8.596;2023-09-30T05:32:46;16.90;99.90
3690;DHT22;1861;50.240;8.596;2023-09-30T05:35:15;16.90;99.90
3690;DHT22;1861;50.240;8.596;2023-09-30T05:37:44;16.90;99.90
3690;DHT22;1861;50.240;8.596;2023-09-30T05:40:13;17.00;99.90
3690;DHT22;1861;50.240;8.596;2023-09-30T05:42:51;17.00;99.90
3690;DHT22;1861;50.240;8.596;2023-09-30T05:45:21;16.90;99.90
3690;DHT22;1861;50.240;8.596;2023-09-30T05:47:50;16.80;99.90
3690;DHT22;1861;50.240;8.596;2023-09-30T05:50:22;16.80;99.90
3690;DHT22;1861;50.240;8.596;2023-09-30T05:52:54;16.80;99.90
3690;DHT22;1861;50.240;8.596;2023-09-30T05:55:23;16.90;99.90
3690;DHT22;1861;50.240;8.596;2023-09-30T05:57:55;16.90;99.90
3690;DHT22;1861;50.240;8.596;2023-09-30T06:00:23;17.00;99.90
3690;DHT22;1861;50.240;8.596;2023-09-30T06:02:57;16.90;99.90
3690;DHT22;1861;50.240;8.596;2023-09-30T06:05:26;16.90;99.90
3690;DHT22;1861;50.240;8.596;2023-09-30T06:07:58;16.90;99.90
3690;DHT22;1861;50.240;8.596;2023-09-30T06:10:27;16.80;99.90
3690;DHT22;1861;50.240;8.596;2023-09-30T06:12:57;16.70;99.90
3690;DHT22;1861;50.240;8.596;2023-09-30T06:15:27;16.80;99.90
3690;DHT22;1861;50.240;8.596;2023-09-30T06:17:56;16.70;99.90
3690;DHT22;1861;50.240;8.596;2023-09-30T06:20:27;16.70;99.90
3690;DHT22;1861;50.240;8.596;2023-09-30T06:22:57;16.80;99.90
3690;DHT22;1861;50.240;8.596;2023-09-30T06:25:27;16.80;99.90
3690;DHT22;1861;50.240;8.596;2023-09-30T06:27:58;16.80;99.90
3690;DHT22;1861;50.240;8.596;2023-09-30T06:30:26;16.80;99.90
3690;DHT22;1861;50.240;8.596;2023-09-30T06:32:59;16.80;99.90
3690;DHT22;1861;50.240;8.596;2023-09-30T06:35:28;16.80;99.90
3690;DHT22;1861;50.240;8.596;2023-09-30T06:38:01;16.90;99.90
3690;DHT22;1861;50.240;8.596;2023-09-30T06:40:30;16.90;99.90
3690;DHT22;1861;50.240;8.596;2023-09-30T06:42:59;16.90;99.90
3690;DHT22;1861;50.240;8.596;2023-09-30T06:45:27;17.00;99.90
3690;DHT22;1861;50.240;8.596;2023-09-30T06:47:56;17.00;99.90
3690;DHT22;1861;50.240;8.596;2023-09-30T06:50:25;17.00;99.90
3690;DHT22;1861;50.240;8.596;2023-09-30T06:52:53;17.00;99.90
3690;DHT22;1861;50.240;8.596;2023-09-30T06:55:21;17.10;99.90
3690;DHT22;1861;50.240;8.596;2023-09-30T06:57:49;17.10;99.90
3690;DHT22;1861;50.240;8.596;2023-09-30T07:00:19;17.10;99.90
3690;DHT22;1861;50.240;8.596;2023-09-30T07:02:47;17.10;99.90
3690;DHT22;1861;50.240;8.596;2023-09-30T07:05:16;17.10;99.90
3690;DHT22;1861;50.240;8.596;2023-09-30T07:07:44;17.10;99.90
3690;DHT22;1861;50.240;8.596;2023-09-30T07:10:13;17.10;99.90
3690;DHT22;1861;50.240;8.596;2023-09-30T07:12:41;17.20;99.90
3690;DHT22;1861;50.240;8.596;2023-09-30T07:15:10;17.20;99.90
3690;DHT22;1861;50.240;8.596;2023-09-30T07:17:40;17.20;99.90
3690;DHT22;1861;50.240;8.596;2023-09-30T07:20:11;17.30;99.90
3690;DHT22;1861;50.240;8.596;2023-09-30T07:22:40;17.30;99.90
3690;DHT22;1861;50.240;8.596;2023-09-30T07:25:28;17.30;99.90
3690;DHT22;1861;50.240;8.596;2023-09-30T07:27:58;17.40;99.90
3690;DHT22;1861;50.240;8.596;2023-09-30T07:30:27;17.30;99.90
3690;DHT22;1861;50.240;8.596;2023-09-30T07:32:57;17.40;99.90
3690;DHT22;1861;50.240;8.596;2023-09-30T07:35:25;17.50;99.90
3690;DHT22;1861;50.240;8.596;2023-09-30T07:37:54;17.50;99.90
3690;DHT22;1861;50.240;8.596;2023-09-30T07:40:22;17.50;99.90
3690;DHT22;1861;50.240;8.596;2023-09-30T07:42:50;17.50;99.90
3690;DHT22;1861;50.240;8.596;2023-09-30T07:45:18;17.50;99.90
3690;DHT22;1861;50.240;8.596;2023-09-30T07:47:48;17.60;99.90
3690;DHT22;1861;50.240;8.596;2023-09-30T07:50:18;17.70;99.90
3690;DHT22;1861;50.240;8.596;2023-09-30T07:52:46;17.70;99.90
3690;DHT22;1861;50.240;8.596;2023-09-30T07:55:14;17.70;99.90
3690;DHT22;1861;50.240;8.596;2023-09-30T07:57:43;17.80;99.90
3690;DHT22;1861;50.240;8.596;2023-09-30T08:00:13;17.80;99.90
3690;DHT22;1861;50.240;8.596;2023-09-30T08:02:43;17.90;99.90
3690;DHT22;1861;50.240;8.596;2023-09-30T08:05:12;18.00;99.90
3690;DHT22;1861;50.240;8.596;2023-09-30T08:07:42;18.00;99.90
3690;DHT22;1861;50.240;8.596;2023-09-30T08:10:10;18.10;99.90
3690;DHT22;1861;50.240;8.596;2023-09-30T08:12:41;18.10;99.90
3690;DHT22;1861;50.240;8.596;2023-09-30T08:15:13;18.10;99.90
3690;DHT22;1861;50.240;8.596;2023-09-30T08:17:41;18.10;99.90
3690;DHT22;1861;50.240;8.596;2023-09-30T08:20:10;18.10;99.90
3690;DHT22;1861;50.240;8.596;2023-09-30T08:22:39;18.20;99.90
3690;DHT22;1861;50.240;8.596;2023-09-30T08:25:09;18.20;99.90
3690;DHT22;1861;50.240;8.596;2023-09-30T08:27:38;18.30;99.90
3690;DHT22;1861;50.240;8.596;2023-09-30T08:30:07;18.30;99.90
3690;DHT22;1861;50.240;8.596;2023-09-30T08:32:37;18.30;99.90
3690;DHT22;1861;50.240;8.596;2023-09-30T08:35:06;18.30;99.90
3690;DHT22;1861;50.240;8.596;2023-09-30T08:37:36;18.40;99.90
3690;DHT22;1861;50.240;8.596;2023-09-30T08:40:05;18.40;99.90
3690;DHT22;1861;50.240;8.596;2023-09-30T08:42:38;18.50;99.90
3690;DHT22;1861;50.240;8.596;2023-09-30T08:45:10;18.50;99.90
3690;DHT22;1861;50.240;8.596;2023-09-30T08:47:41;18.50;99.90
3690;DHT22;1861;50.240;8.596;2023-09-30T08:50:09;18.50;99.90
3690;DHT22;1861;50.240;8.596;2023-09-30T08:52:40;18.60;99.90
3690;DHT22;1861;50.240;8.596;2023-09-30T08:55:11;18.60;99.90
3690;DHT22;1861;50.240;8.596;2023-09-30T08:57:42;18.60;99.90
3690;DHT22;1861;50.240;8.596;2023-09-30T09:00:11;18.60;99.90
3690;DHT22;1861;50.240;8.596;2023-09-30T09:02:41;18.60;99.90
3690;DHT22;1861;50.240;8.596;2023-09-30T09:05:10;18.80;99.90
3690;DHT22;1861;50.240;8.596;2023-09-30T09:07:39;18.60;99.90
3690;DHT22;1861;50.240;8.596;2023-09-30T09:10:11;18.60;99.90
3690;DHT22;1861;50.240;8.596;2023-09-30T09:12:42;18.50;99.90
3690;DHT22;1861;50.240;8.596;2023-09-30T09:15:22;18.40;99.90
3690;DHT22;1861;50.240;8.596;2023-09-30T09:17:51;18.30;99.90
3690;DHT22;1861;50.240;8.596;2023-09-30T09:20:21;18.30;99.90
3690;DHT22;1861;50.240;8.596;2023-09-30T09:22:51;18.40;99.90
3690;DHT22;1861;50.240;8.596;2023-09-30T09:25:21;18.50;99.90
3690;DHT22;1861;50.240;8.596;2023-09-30T09:27:52;18.60;99.90
3690;DHT22;1861;50.240;8.596;2023-09-30T09:30:23;18.60;99.90
3690;DHT22;1861;50.240;8.596;2023-09-30T09:32:53;18.60;99.90
3690;DHT22;1861;50.240;8.596;2023-09-30T09:35:22;18.60;99.90
3690;DHT22;1861;50.240;8.596;2023-09-30T09:37:56;18.60;99.90
3690;DHT22;1861;50.240;8.596;2023-09-30T09:40:26;18.60;99.90
3690;DHT22;1861;50.240;8.596;2023-09-30T09:42:56;18.70;99.90
3690;DHT22;1861;50.240;8.596;2023-09-30T09:45:27;18.70;99.90
3690;DHT22;1861;50.240;8.596;2023-09-30T09:48:00;18.80;99.90
3690;DHT22;1861;50.240;8.596;2023-09-30T09:50:28;18.80;99.90
3690;DHT22;1861;50.240;8.596;2023-09-30T09:52:59;18.80;99.90
3690;DHT22;1861;50.240;8.596;2023-09-30T09:55:27;18.80;99.90
3690;DHT22;1861;50.240;8.596;2023-09-30T09:57:58;18.80;99.90
3690;DHT22;1861;50.240;8.596;2023-09-30T10:00:26;18.80;99.90
3690;DHT22;1861;50.240;8.596;2023-09-30T10:02:56;18.90;99.90
3690;DHT22;1861;50.240;8.596;2023-09-30T10:05:26;18.90;99.90
3690;DHT22;1861;50.240;8.596;2023-09-30T10:08:00;18.90;99.90
3690;DHT22;1861;50.240;8.596;2023-09-30T10:10:30;18.90;99.90
3690;DHT22;1861;50.240;8.596;2023-09-30T10:13:00;19.00;99.90
3690;DHT22;1861;50.240;8.596;2023-09-30T10:15:47;18.90;99.90
3690;DHT22;1861;50.240;8.596;2023-09-30T10:18:15;19.00;99.90
3690;DHT22;1861;50.240;8.596;2023-09-30T10:20:44;19.00;99.90
3690;DHT22;1861;50.240;8.596;2023-09-30T10:23:20;19.00;99.90
3690;DHT22;1861;50.240;8.596;2023-09-30T10:25:49;19.00;99.90
3690;DHT22;1861;50.240;8.596;2023-09-30T10:28:37;19.00;99.90
3690;DHT22;1861;50.240;8.596;2023-09-30T10:31:10;19.10;99.90
3690;DHT22;1861;50.240;8.596;2023-09-30T10:36:42;19.10;99.90
3690;DHT22;1861;50.240;8.596;2023-09-30T10:39:12;19.20;99.90
3690;DHT22;1861;50.240;8.596;2023-09-30T10:41:49;19.10;99.90
3690;DHT22;1861;50.240;8.596;2023-09-30T10:44:35;19.20;99.90
3690;DHT22;1861;50.240;8.596;2023-09-30T10:47:34;19.20;99.90
3690;DHT22;1861;50.240;8.596;2023-09-30T10:50:03;19.30;99.90
3690;DHT22;1861;50.240;8.596;2023-09-30T10:52:32;19.30;99.90
3690;DHT22;1861;50.240;8.596;2023-09-30T10:55:03;19.40;99.90
3690;DHT22;1861;50.240;8.596;2023-09-30T10:57:34;19.40;99.90
3690;DHT22;1861;50.240;8.596;2023-09-30T11:00:11;19.40;99.90
3690;DHT22;1861;50.240;8.596;2023-09-30T11:02:50;19.30;99.90
3690;DHT22;1861;50.240;8.596;2023-09-30T11:05:20;19.20;99.90
3690;DHT22;1861;50.240;8.596;2023-09-30T11:08:07;19.10;99.90
3690;DHT22;1861;50.240;8.596;2023-09-30T11:10:37;19.10;99.90
3690;DHT22;1861;50.240;8.596;2023-09-30T11:13:05;19.10;99.90
3690;DHT22;1861;50.240;8.596;2023-09-30T11:15:34;19.00;99.90
3690;DHT22;1861;50.240;8.596;2023-09-30T11:18:13;19.10;99.90
3690;DHT22;1861;50.240;8.596;2023-09-30T11:20:42;19.10;99.90
3690;DHT22;1861;50.240;8.596;2023-09-30T11:23:11;19.10;99.90
3690;DHT22;1861;50.240;8.596;2023-09-30T11:25:41;19.10;99.90
3690;DHT22;1861;50.240;8.596;2023-09-30T11:28:13;19.00;99.90
3690;DHT22;1861;50.240;8.596;2023-09-30T11:30:57;19.10;99.90
3690;DHT22;1861;50.240;8.596;2023-09-30T11:33:26;19.10;99.90
3690;DHT22;1861;50.240;8.596;2023-09-30T11:35:59;19.00;99.90
3690;DHT22;1861;50.240;8.596;2023-09-30T11:38:28;19.00;99.90
3690;DHT22;1861;50.240;8.596;2023-09-30T11:41:00;19.00;99.90
3690;DHT22;1861;50.240;8.596;2023-09-30T11:43:29;19.00;99.90
3690;DHT22;1861;50.240;8.596;2023-09-30T11:46:06;19.00;99.90
3690;DHT22;1861;50.240;8.596;2023-09-30T11:48:36;18.90;99.90
3690;DHT22;1861;50.240;8.596;2023-09-30T11:51:05;19.00;99.90
3690;DHT22;1861;50.240;8.596;2023-09-30T11:53:35;19.00;99.90
3690;DHT22;1861;50.240;8.596;2023-09-30T11:56:04;19.00;99.90
3690;DHT22;1861;50.240;8.596;2023-09-30T11:58:34;19.10;99.90
3690;DHT22;1861;50.240;8.596;2023-09-30T12:01:02;19.10;99.90
3690;DHT22;1861;50.240;8.596;2023-09-30T12:03:35;19.10;99.90
3690;DHT22;1861;50.240;8.596;2023-09-30T12:06:07;19.10;99.90
3690;DHT22;1861;50.240;8.596;2023-09-30T12:08:35;19.10;99.90
3690;DHT22;1861;50.240;8.596;2023-09-30T12:11:04;19.10;99.90
3690;DHT22;1861;50.240;8.596;2023-09-30T12:13:33;19.20;99.90
3690;DHT22;1861;50.240;8.596;2023-09-30T12:16:01;19.20;99.90
3690;DHT22;1861;50.240;8.596;2023-09-30T12:18:30;19.20;99.90
3690;DHT22;1861;50.240;8.596;2023-09-30T12:21:00;19.20;99.90
3690;DHT22;1861;50.240;8.596;2023-09-30T12:23:28;19.20;99.90
3690;DHT22;1861;50.240;8.596;2023-09-30T12:25:56;19.20;99.90
3690;DHT22;1861;50.240;8.596;2023-09-30T12:28:39;19.20;99.90
3690;DHT22;1861;50.240;8.596;2023-09-30T12:31:07;19.20;99.90
3690;DHT22;1861;50.240;8.596;2023-09-30T12:33:37;19.20;99.90
3690;DHT22;1861;50.240;8.596;2023-09-30T12:36:07;19.20;99.90
3690;DHT22;1861;50.240;8.596;2023-09-30T12:38:35;19.20;99.90
3690;DHT22;1861;50.240;8.596;2023-09-30T12:41:03;19.30;99.90
3690;DHT22;1861;50.240;8.596;2023-09-30T12:43:31;19.20;99.90
3690;DHT22;1861;50.240;8.596;2023-09-30T12:46:00;19.20;99.90
3690;DHT22;1861;50.240;8.596;2023-09-30T12:48:29;19.20;99.90
3690;DHT22;1861;50.240;8.596;2023-09-30T12:50:57;19.20;99.90
3690;DHT22;1861;50.240;8.596;2023-09-30T12:53:27;19.20;99.90
3690;DHT22;1861;50.240;8.596;2023-09-30T12:55:55;19.20;99.90
3690;DHT22;1861;50.240;8.596;2023-09-30T12:58:23;19.20;99.90
3690;DHT22;1861;50.240;8.596;2023-09-30T13:00:51;19.20;99.90
3690;DHT22;1861;50.240;8.596;2023-09-30T13:03:33;19.20;99.90
3690;DHT22;1861;50.240;8.596;2023-09-30T13:06:02;19.20;99.90
3690;DHT22;1861;50.240;8.596;2023-09-30T13:08:32;19.20;99.90
3690;DHT22;1861;50.240;8.596;2023-09-30T13:11:03;19.20;99.90
3690;DHT22;1861;50.240;8.596;2023-09-30T13:13:31;19.20;99.90
3690;DHT22;1861;50.240;8.596;2023-09-30T13:16:00;19.20;99.90
3690;DHT22;1861;50.240;8.596;2023-09-30T13:18:29;19.20;99.90
3690;DHT22;1861;50.240;8.596;2023-09-30T13:20:57;19.20;99.90
3690;DHT22;1861;50.240;8.596;2023-09-30T13:23:25;19.20;99.90
3690;DHT22;1861;50.240;8.596;2023-09-30T13:25:55;19.20;99.90
3690;DHT22;1861;50.240;8.596;2023-09-30T13:28:24;19.20;99.90
3690;DHT22;1861;50.240;8.596;2023-09-30T13:30:54;19.20;99.90
3690;DHT22;1861;50.240;8.596;2023-09-30T13:33:23;19.20;99.90
3690;DHT22;1861;50.240;8.596;2023-09-30T13:35:51;19.20;99.90
3690;DHT22;1861;50.240;8.596;2023-09-30T13:38:19;19.30;99.90
3690;DHT22;1861;50.240;8.596;2023-09-30T13:40:47;19.30;99.90
3690;DHT22;1861;50.240;8.596;2023-09-30T13:43:17;19.20;99.90
3690;DHT22;1861;50.240;8.596;2023-09-30T13:45:45;19.20;99.90
3690;DHT22;1861;50.240;8.596;2023-09-30T13:48:13;19.20;99.90
3690;DHT22;1861;50.240;8.596;2023-09-30T13:50:41;19.30;99.90
3690;DHT22;1861;50.240;8.596;2023-09-30T13:53:09;19.20;99.90
3690;DHT22;1861;50.240;8.596;2023-09-30T13:55:38;19.20;99.90
3690;DHT22;1861;50.240;8.596;2023-09-30T13:58:06;19.20;99.90
3690;DHT22;1861;50.240;8.596;2023-09-30T14:00:36;19.20;99.90
3690;DHT22;1861;50.240;8.596;2023-09-30T14:03:04;19.20;99.90
3690;DHT22;1861;50.240;8.596;2023-09-30T14:05:33;19.20;99.90
3690;DHT22;1861;50.240;8.596;2023-09-30T14:08:02;19.20;99.90
3690;DHT22;1861;50.240;8.596;2023-09-30T14:10:30;19.20;99.90
3690;DHT22;1861;50.240;8.596;2023-09-30T14:12:58;19.20;99.90
3690;DHT22;1861;50.240;8.596;2023-09-30T14:15:26;19.20;99.90
3690;DHT22;1861;50.240;8.596;2023-09-30T14:17:56;19.20;99.90
3690;DHT22;1861;50.240;8.596;2023-09-30T14:20:25;19.20;99.90
3690;DHT22;1861;50.240;8.596;2023-09-30T14:22:54;19.20;99.90
3690;DHT22;1861;50.240;8.596;2023-09-30T14:25:22;19.20;99.90
3690;DHT22;1861;50.240;8.596;2023-09-30T14:27:51;19.20;99.90
3690;DHT22;1861;50.240;8.596;2023-09-30T14:30:19;19.20;99.90
3690;DHT22;1861;50.240;8.596;2023-09-30T14:32:47;19.20;99.90
3690;DHT22;1861;50.240;8.596;2023-09-30T14:35:17;19.20;99.90
3690;DHT22;1861;50.240;8.596;2023-09-30T14:37:45;19.20;99.90
3690;DHT22;1861;50.240;8.596;2023-09-30T14:40:13;19.20;99.90
3690;DHT22;1861;50.240;8.596;2023-09-30T14:42:43;19.20;99.90
3690;DHT22;1861;50.240;8.596;2023-09-30T14:45:11;19.20;99.90
3690;DHT22;1861;50.240;8.596;2023-09-30T14:47:39;19.20;99.90
3690;DHT22;1861;50.240;8.596;2023-09-30T14:50:08;19.20;99.90
3690;DHT22;1861;50.240;8.596;2023-09-30T14:52:38;19.20;99.90
3690;DHT22;1861;50.240;8.596;2023-09-30T14:55:07;19.20;99.90
3690;DHT22;1861;50.240;8.596;2023-09-30T14:57:35;19.20;99.90
3690;DHT22;1861;50.240;8.596;2023-09-30T15:00:05;19.20;99.90
3690;DHT22;1861;50.240;8.596;2023-09-30T15:02:34;19.20;99.90
3690;DHT22;1861;50.240;8.596;2023-09-30T15:05:04;19.20;99.90
3690;DHT22;1861;50.240;8.596;2023-09-30T15:07:32;19.20;99.90
3690;DHT22;1861;50.240;8.596;2023-09-30T15:10:02;19.20;99.90
3690;DHT22;1861;50.240;8.596;2023-09-30T15:12:31;19.20;99.90
3690;DHT22;1861;50.240;8.596;2023-09-30T15:14:59;19.20;99.90
3690;DHT22;1861;50.240;8.596;2023-09-30T15:17:28;19.10;99.90
3690;DHT22;1861;50.240;8.596;2023-09-30T15:19:58;19.20;99.90
3690;DHT22;1861;50.240;8.596;2023-09-30T15:22:26;19.20;99.90
3690;DHT22;1861;50.240;8.596;2023-09-30T15:24:55;19.20;99.90
3690;DHT22;1861;50.240;8.596;2023-09-30T15:27:25;19.10;99.90
3690;DHT22;1861;50.240;8.596;2023-09-30T15:29:53;19.10;99.90
3690;DHT22;1861;50.240;8.596;2023-09-30T15:32:22;19.10;99.90
3690;DHT22;1861;50.240;8.596;2023-09-30T15:34:50;19.10;99.90
3690;DHT22;1861;50.240;8.596;2023-09-30T15:37:18;19.10;99.90
3690;DHT22;1861;50.240;8.596;2023-09-30T15:39:46;19.10;99.90
3690;DHT22;1861;50.240;8.596;2023-09-30T15:42:15;19.10;99.90
3690;DHT22;1861;50.240;8.596;2023-09-30T15:44:44;19.00;99.90
3690;DHT22;1861;50.240;8.596;2023-09-30T15:47:13;19.00;99.90
3690;DHT22;1861;50.240;8.596;2023-09-30T15:49:41;19.00;99.90
3690;DHT22;1861;50.240;8.596;2023-09-30T15:52:09;19.00;99.90
3690;DHT22;1861;50.240;8.596;2023-09-30T15:54:37;19.00;99.90
3690;DHT22;1861;50.240;8.596;2023-09-30T15:57:05;19.00;99.90
3690;DHT22;1861;50.240;8.596;2023-09-30T15:59:35;19.00;99.90
3690;DHT22;1861;50.240;8.596;2023-09-30T16:02:04;19.00;99.90
3690;DHT22;1861;50.240;8.596;2023-09-30T16:04:34;18.90;99.90
3690;DHT22;1861;50.240;8.596;2023-09-30T16:07:03;19.00;99.90
3690;DHT22;1861;50.240;8.596;2023-09-30T16:09:31;18.90;99.90
3690;DHT22;1861;50.240;8.596;2023-09-30T16:12:00;18.90;99.90
3690;DHT22;1861;50.240;8.596;2023-09-30T16:14:29;18.90;99.90
3690;DHT22;1861;50.240;8.596;2023-09-30T16:16:57;18.90;99.90
3690;DHT22;1861;50.240;8.596;2023-09-30T16:19:28;18.90;99.90
3690;DHT22;1861;50.240;8.596;2023-09-30T16:21:56;18.80;99.90